createdAt,value
2022-11-29T00:01:00.436Z,28.40
2022-11-29T00:03:28.267Z,28.33
2022-11-29T00:05:55.670Z,30.25
2022-11-29T00:08:23.994Z,29.52
2022-11-29T00:10:51.976Z,27.65
2022-11-29T00:13:19.241Z,29.55
2022-11-29T00:15:46.706Z,31.65
2022-11-29T00:18:15.679Z,32.00
2022-11-29T00:20:42.978Z,27.45
2022-11-29T00:23:12.944Z,29.80
2022-11-29T00:25:40.409Z,30.45
2022-11-29T00:28:10.771Z,29.95
2022-11-29T00:30:38.241Z,31.98
2022-11-29T00:33:05.854Z,31.58
2022-11-29T00:35:33.635Z,33.58
2022-11-29T00:38:02.084Z,29.50
2022-11-29T00:40:29.351Z,33.88
2022-11-29T00:42:57.102Z,30.33
2022-11-29T00:45:24.494Z,33.17
2022-11-29T00:47:51.919Z,31.85
2022-11-29T00:50:19.899Z,33.45
2022-11-29T00:52:47.161Z,30.85
2022-11-29T00:55:16.763Z,31.70
2022-11-29T00:57:44.663Z,27.20
2022-11-29T01:00:12.614Z,30.92
2022-11-29T01:02:40.301Z,29.08
2022-11-29T01:05:08.212Z,34.88
2022-11-29T01:07:35.824Z,33.30
2022-11-29T01:10:03.201Z,31.35
2022-11-29T01:12:30.876Z,28.45
2022-11-29T01:14:59.709Z,32.67
2022-11-29T01:17:27.155Z,30.80
2022-11-29T01:19:54.803Z,30.95
2022-11-29T01:22:22.221Z,31.90
2022-11-29T01:24:50.258Z,32.38
2022-11-29T01:27:18.017Z,30.95
2022-11-29T01:29:45.530Z,28.33
2022-11-29T01:32:13.125Z,28.65
2022-11-29T01:34:41.176Z,30.77
2022-11-29T01:37:11.335Z,30.00
2022-11-29T01:39:41.134Z,28.27
2022-11-29T01:42:10.581Z,29.65
2022-11-29T01:44:38.097Z,27.65
2022-11-29T01:47:05.888Z,26.50
2022-11-29T01:49:35.916Z,28.05
2022-11-29T01:52:10.061Z,29.33
2022-11-29T01:54:42.654Z,28.92
2022-11-29T01:57:10.758Z,29.27
2022-11-29T01:59:39.866Z,27.73
2022-11-29T02:02:09.867Z,27.80
2022-11-29T02:04:41.726Z,32.13
2022-11-29T02:07:11.799Z,27.77
2022-11-29T02:09:41.916Z,28.10
2022-11-29T02:12:35.870Z,27.58
2022-11-29T02:15:05.798Z,27.42
2022-11-29T02:17:36.289Z,27.48
2022-11-29T02:20:23.135Z,27.38
2022-11-29T02:23:12.338Z,26.65
2022-11-29T02:25:58.282Z,27.90
2022-11-29T02:28:28.816Z,28.63
2022-11-29T02:31:00.885Z,29.02
2022-11-29T02:33:39.979Z,24.75
2022-11-29T02:36:19.737Z,24.48
2022-11-29T02:39:18.033Z,25.13
2022-11-29T02:41:51.105Z,25.63
2022-11-29T02:44:29.508Z,26.05
2022-11-29T02:47:25.918Z,26.98
2022-11-29T02:50:12.259Z,23.73
2022-11-29T02:52:53.925Z,25.00
2022-11-29T02:55:40.335Z,26.33
2022-11-29T02:58:18.138Z,25.77
2022-11-29T03:01:00.844Z,26.10
2022-11-29T03:03:41.722Z,25.75
2022-11-29T03:06:32.234Z,26.05
2022-11-29T03:09:03.124Z,24.48
2022-11-29T03:11:30.225Z,27.30
2022-11-29T03:14:16.159Z,22.70
2022-11-29T03:16:51.247Z,25.10
2022-11-29T03:19:18.796Z,27.02
2022-11-29T03:21:55.354Z,26.20
2022-11-29T03:24:31.733Z,26.88
2022-11-29T03:27:10.336Z,26.33
2022-11-29T03:29:41.475Z,23.58
2022-11-29T03:32:21.184Z,24.38
2022-11-29T03:35:05.399Z,25.85
2022-11-29T03:37:43.387Z,27.45
2022-11-29T03:40:13.930Z,25.75
2022-11-29T03:42:50.985Z,25.90
2022-11-29T03:45:36.239Z,27.95
2022-11-29T03:48:32.826Z,23.20
2022-11-29T03:51:17.064Z,22.65
2022-11-29T03:53:53.738Z,23.90
2022-11-29T03:56:27.956Z,22.42
2022-11-29T03:59:10.652Z,24.15
2022-11-29T04:01:40.897Z,26.00
2022-11-29T04:04:23.505Z,22.77
2022-11-29T04:06:57.191Z,23.70
2022-11-29T04:12:10.270Z,23.90
2022-11-29T04:14:52.709Z,24.10
2022-11-29T04:17:23.200Z,25.42
2022-11-29T04:20:12.883Z,23.10
2022-11-29T04:22:54.177Z,25.90
2022-11-29T04:25:43.110Z,25.77
2022-11-29T04:28:29.342Z,23.40
2022-11-29T04:31:02.720Z,24.17
2022-11-29T04:33:48.204Z,23.67
2022-11-29T04:36:34.249Z,22.75
2022-11-29T04:39:04.111Z,24.50
2022-11-29T04:41:46.816Z,24.67
2022-11-29T04:44:23.479Z,23.98
2022-11-29T04:47:16.754Z,22.13
2022-11-29T04:50:07.070Z,25.07
2022-11-29T04:52:50.763Z,21.10
2022-11-29T04:58:00.225Z,21.33
2022-11-29T05:00:27.415Z,21.75
2022-11-29T05:02:58.046Z,21.67
2022-11-29T05:05:34.247Z,20.17
2022-11-29T05:08:20.472Z,20.27
2022-11-29T05:11:07.402Z,20.60
2022-11-29T05:13:39.230Z,25.27
2022-11-29T05:16:10.230Z,22.77
2022-11-29T05:18:50.062Z,20.63
2022-11-29T05:21:25.799Z,22.05
2022-11-29T05:24:05.307Z,22.98
2022-11-29T05:26:42.743Z,25.63
2022-11-29T05:29:20.019Z,24.90
2022-11-29T05:32:06.506Z,21.10
2022-11-29T05:34:52.795Z,24.30
2022-11-29T05:37:28.913Z,21.17
2022-11-29T05:40:05.434Z,18.75
2022-11-29T05:42:42.578Z,20.60
2022-11-29T05:45:24.956Z,19.10
2022-11-29T05:47:54.895Z,20.75
2022-11-29T05:50:24.151Z,21.00
2022-11-29T05:53:02.717Z,20.08
2022-11-29T05:55:41.311Z,23.88
2022-11-29T05:58:30.287Z,21.60
2022-11-29T06:01:18.915Z,25.42
2022-11-29T06:04:11.675Z,20.13
2022-11-29T06:06:47.911Z,23.10
2022-11-29T06:09:23.094Z,18.88
2022-11-29T06:11:54.467Z,18.52
2022-11-29T06:14:40.590Z,17.30
2022-11-29T06:17:10.811Z,18.08
2022-11-29T06:20:10.218Z,17.50
2022-11-29T06:22:47.622Z,17.40
2022-11-29T06:25:22.780Z,17.27
2022-11-29T06:28:10.081Z,21.33
2022-11-29T06:31:04.336Z,20.30
2022-11-29T06:33:39.788Z,21.10
2022-11-29T06:36:33.262Z,19.35
2022-11-29T06:39:00.817Z,21.73
2022-11-29T06:41:31.193Z,21.50
2022-11-29T06:44:00.991Z,20.00
2022-11-29T06:46:47.695Z,20.77
2022-11-29T06:49:26.957Z,21.08
2022-11-29T06:52:13.058Z,20.33
2022-11-29T06:54:48.174Z,19.48
2022-11-29T06:57:22.290Z,17.83
2022-11-29T07:00:03.142Z,16.70
2022-11-29T07:02:36.737Z,16.38
2022-11-29T07:05:23.232Z,19.98
2022-11-29T07:07:51.210Z,17.17
2022-11-29T07:10:19.898Z,17.48
2022-11-29T07:12:49.198Z,17.10
2022-11-29T07:15:17.903Z,20.20
2022-11-29T07:18:04.377Z,17.35
2022-11-29T07:20:39.702Z,19.65
2022-11-29T07:23:10.203Z,17.02
2022-11-29T07:25:40.576Z,16.75
2022-11-29T07:28:17.565Z,19.23
2022-11-29T07:31:02.792Z,19.75
2022-11-29T07:33:42.996Z,17.00
2022-11-29T07:36:19.249Z,16.45
2022-11-29T07:39:07.019Z,16.83
2022-11-29T07:41:43.812Z,15.45
2022-11-29T07:44:19.993Z,16.08
2022-11-29T07:46:48.900Z,14.98
2022-11-29T07:49:16.321Z,13.98
2022-11-29T07:51:44.090Z,13.05
2022-11-29T07:54:15.357Z,15.00
2022-11-29T07:56:42.731Z,13.73
2022-11-29T07:59:19.541Z,12.82
2022-11-29T08:01:47.141Z,13.30
2022-11-29T08:04:21.633Z,12.93
2022-11-29T08:06:58.841Z,11.30
2022-11-29T08:09:25.963Z,10.07
2022-11-29T08:11:53.177Z,9.50
2022-11-29T08:14:20.268Z,10.05
2022-11-29T08:16:48.121Z,11.45
2022-11-29T08:19:18.658Z,10.60
2022-11-29T08:21:49.526Z,11.43
2022-11-29T08:24:17.145Z,10.38
2022-11-29T08:26:47.590Z,12.15
2022-11-29T08:29:18.616Z,12.82
2022-11-29T08:31:47.882Z,13.07
2022-11-29T08:34:16.203Z,10.43
2022-11-29T08:36:48.089Z,11.70
2022-11-29T08:39:24.614Z,11.98
2022-11-29T08:41:53.314Z,12.05
2022-11-29T08:44:21.090Z,10.07
2022-11-29T08:47:07.572Z,11.05
2022-11-29T08:49:35.120Z,10.27
2022-11-29T08:52:21.636Z,9.50
2022-11-29T08:54:48.906Z,8.55
2022-11-29T08:57:51.479Z,9.40
2022-11-29T09:00:10.479Z,9.82
2022-11-29T09:02:42.878Z,9.57
2022-11-29T09:05:27.247Z,10.43
2022-11-29T09:08:02.564Z,9.82
2022-11-29T09:10:31.488Z,8.23
2022-11-29T09:13:20.477Z,8.55
2022-11-29T09:15:57.963Z,9.40
2022-11-29T09:18:31.945Z,8.68
2022-11-29T09:21:05.646Z,8.45
2022-11-29T09:23:55.939Z,8.10
2022-11-29T09:26:49.920Z,8.75
2022-11-29T09:31:51.453Z,8.32
2022-11-29T09:34:57.986Z,9.10
2022-11-29T09:37:27.485Z,9.43
2022-11-29T09:39:56.386Z,9.38
2022-11-29T09:42:51.954Z,9.43
2022-11-29T09:45:31.497Z,8.68
2022-11-29T09:48:22.691Z,8.32
2022-11-29T09:50:59.179Z,8.25
2022-11-29T09:53:44.327Z,9.30
2022-11-29T09:57:24.294Z,8.27
2022-11-29T09:59:54.622Z,9.18
2022-11-29T10:02:26.769Z,8.60
2022-11-29T10:05:00.092Z,8.95
2022-11-29T10:07:31.314Z,9.80
2022-11-29T10:10:09.723Z,8.50
2022-11-29T10:12:44.440Z,7.53
2022-11-29T10:15:14.843Z,8.85
2022-11-29T10:18:13.823Z,9.57
2022-11-29T10:20:49.017Z,9.00
2022-11-29T10:23:25.075Z,8.38
2022-11-29T10:25:54.907Z,8.48
2022-11-29T10:28:26.112Z,9.45
2022-11-29T10:31:02.748Z,9.98
2022-11-29T10:33:34.892Z,8.95
2022-11-29T10:36:10.979Z,9.35
2022-11-29T10:38:39.818Z,9.75
2022-11-29T10:41:17.157Z,10.02
2022-11-29T10:43:47.123Z,10.05
2022-11-29T10:46:22.899Z,9.20
2022-11-29T10:48:50.553Z,9.52
2022-11-29T10:51:18.590Z,8.93
2022-11-29T10:53:46.817Z,10.25
2022-11-29T10:56:17.086Z,9.38
2022-11-29T10:59:05.512Z,9.70
2022-11-29T11:01:44.038Z,9.30
2022-11-29T11:04:30.537Z,8.73
2022-11-29T11:07:07.616Z,8.25
2022-11-29T11:09:36.854Z,9.48
2022-11-29T11:12:23.021Z,8.45
2022-11-29T11:14:54.609Z,9.32
2022-11-29T11:17:32.592Z,8.20
2022-11-29T11:20:01.138Z,9.95
2022-11-29T11:22:32.976Z,10.00
2022-11-29T11:25:03.821Z,10.13
2022-11-29T11:27:36.547Z,10.82
2022-11-29T11:30:06.066Z,10.25
2022-11-29T11:32:39.712Z,9.38
2022-11-29T11:35:22.343Z,8.82
2022-11-29T11:37:59.237Z,9.40
2022-11-29T11:40:41.340Z,9.25
2022-11-29T11:43:16.711Z,9.63
2022-11-29T11:45:51.628Z,10.57
2022-11-29T11:48:19.784Z,10.48
2022-11-29T11:50:47.151Z,10.25
2022-11-29T11:53:23.184Z,10.68
2022-11-29T11:56:11.351Z,10.10
2022-11-29T11:58:40.815Z,10.48
2022-11-29T12:01:13.733Z,11.68
2022-11-29T12:04:00.287Z,11.88
2022-11-29T12:06:35.788Z,11.13
2022-11-29T12:09:06.535Z,10.95
2022-11-29T12:11:41.568Z,11.00
2022-11-29T12:14:23.083Z,13.43
2022-11-29T12:16:51.513Z,12.13
2022-11-29T12:19:22.161Z,11.68
2022-11-29T12:21:52.816Z,11.93
2022-11-29T12:24:20.028Z,12.02
2022-11-29T12:26:56.943Z,11.98
2022-11-29T12:29:32.983Z,12.10
2022-11-29T12:32:24.837Z,11.40
2022-11-29T12:34:55.772Z,12.60
2022-11-29T12:37:25.993Z,12.30
2022-11-29T12:39:59.843Z,11.52
2022-11-29T12:42:48.902Z,11.45
2022-11-29T12:45:24.813Z,11.63
2022-11-29T12:48:17.660Z,12.77
2022-11-29T12:50:48.004Z,11.73
2022-11-29T12:53:34.326Z,12.63
2022-11-29T12:56:23.397Z,12.45
2022-11-29T12:59:01.905Z,11.73
2022-11-29T13:01:35.500Z,13.02
2022-11-29T13:04:13.050Z,12.88
2022-11-29T13:06:50.172Z,12.77
2022-11-29T13:09:41.471Z,11.88
2022-11-29T13:12:15.016Z,12.45
2022-11-29T13:14:51.977Z,12.18
2022-11-29T13:17:31.702Z,12.05
2022-11-29T13:20:20.733Z,12.18
2022-11-29T13:23:04.120Z,12.38
2022-11-29T13:25:35.101Z,13.15
2022-11-29T13:28:22.983Z,13.88
2022-11-29T13:30:51.276Z,14.32
2022-11-29T13:33:25.089Z,12.93
2022-11-29T13:35:55.458Z,12.98
2022-11-29T13:38:26.476Z,13.05
2022-11-29T13:41:06.601Z,13.30
2022-11-29T13:43:49.294Z,13.25
2022-11-29T13:46:21.897Z,12.82
2022-11-29T13:49:01.043Z,13.40
2022-11-29T13:51:36.380Z,14.63
2022-11-29T13:54:05.616Z,14.45
2022-11-29T13:56:36.339Z,14.13
2022-11-29T13:59:10.748Z,14.98
2022-11-29T14:01:54.200Z,14.80
2022-11-29T14:04:38.676Z,14.55
2022-11-29T14:07:10.887Z,14.48
2022-11-29T14:09:52.205Z,14.07
2022-11-29T14:12:22.055Z,14.35
2022-11-29T14:14:54.552Z,14.38
2022-11-29T14:17:34.149Z,14.27
2022-11-29T14:20:22.951Z,13.63
2022-11-29T14:23:05.477Z,13.43
2022-11-29T14:25:52.940Z,14.32
2022-11-29T14:28:23.347Z,15.63
2022-11-29T14:31:02.020Z,13.23
2022-11-29T14:33:38.462Z,13.52
2022-11-29T14:36:21.282Z,14.20
2022-11-29T14:39:19.592Z,13.88
2022-11-29T14:41:52.456Z,13.50
2022-11-29T14:44:26.361Z,13.27
2022-11-29T14:47:16.842Z,12.18
2022-11-29T14:49:47.390Z,13.02
2022-11-29T14:52:15.067Z,13.30
2022-11-29T14:54:54.776Z,12.82
2022-11-29T14:57:41.629Z,14.05
2022-11-29T15:00:12.238Z,12.90
2022-11-29T15:02:42.917Z,13.65
2022-11-29T15:05:30.408Z,13.25
2022-11-29T15:08:12.928Z,14.00
2022-11-29T15:10:42.068Z,12.70
2022-11-29T15:13:13.863Z,13.88
2022-11-29T15:15:41.304Z,12.48
2022-11-29T15:18:27.344Z,13.40
2022-11-29T15:20:57.508Z,13.27
2022-11-29T15:23:25.087Z,12.90
2022-11-29T15:25:53.463Z,12.88
2022-11-29T15:28:22.436Z,12.18
2022-11-29T15:30:52.108Z,12.25
2022-11-29T15:33:29.511Z,13.40
2022-11-29T15:36:04.159Z,13.57
2022-11-29T15:38:41.904Z,13.30
2022-11-29T15:41:23.448Z,13.20
2022-11-29T15:43:53.378Z,13.32
2022-11-29T15:46:30.395Z,13.50
2022-11-29T15:49:16.482Z,13.70
2022-11-29T15:51:47.024Z,13.13
2022-11-29T15:54:47.563Z,12.80
2022-11-29T15:57:27.302Z,13.40
2022-11-29T15:59:54.535Z,13.30
2022-11-29T16:02:29.397Z,14.05
2022-11-29T16:05:17.972Z,14.25
2022-11-29T16:07:46.233Z,15.05
2022-11-29T16:10:23.750Z,15.40
2022-11-29T16:13:30.284Z,13.95
2022-11-29T16:16:16.488Z,13.75
2022-11-29T16:18:47.128Z,13.13
2022-11-29T16:21:23.823Z,14.07
2022-11-29T16:23:56.540Z,14.93
2022-11-29T16:26:29.255Z,16.50
2022-11-29T16:29:03.241Z,14.60
2022-11-29T16:31:39.389Z,15.60
2022-11-29T16:34:24.968Z,16.65
2022-11-29T16:37:07.579Z,16.70
2022-11-29T16:39:36.861Z,17.70
2022-11-29T16:42:10.463Z,17.10
2022-11-29T16:44:45.754Z,17.85
2022-11-29T16:47:14.019Z,17.45
2022-11-29T16:49:41.824Z,16.70
2022-11-29T16:52:38.851Z,16.10
2022-11-29T16:55:06.459Z,15.65
2022-11-29T16:57:34.221Z,15.73
2022-11-29T17:00:04.866Z,15.68
2022-11-29T17:03:17.928Z,15.40
2022-11-29T17:05:56.054Z,14.82
2022-11-29T17:08:25.164Z,14.68
2022-11-29T17:10:52.562Z,14.00
2022-11-29T17:13:20.149Z,15.52
2022-11-29T17:15:47.938Z,14.63
2022-11-29T17:18:18.406Z,14.45
2022-11-29T17:20:46.297Z,13.88
2022-11-29T17:23:16.423Z,13.25
2022-11-29T17:25:43.921Z,13.88
2022-11-29T17:28:17.061Z,13.73
2022-11-29T17:30:44.549Z,13.20
2022-11-29T17:33:16.726Z,13.90
2022-11-29T17:35:44.579Z,13.00
2022-11-29T17:38:22.948Z,12.95
2022-11-29T17:40:55.056Z,13.55
2022-11-29T17:43:22.413Z,13.20
2022-11-29T17:45:51.871Z,14.25
2022-11-29T17:48:19.929Z,13.02
2022-11-29T17:50:49.618Z,13.40
2022-11-29T17:53:19.418Z,14.35
2022-11-29T17:55:47.090Z,13.48
2022-11-29T17:58:19.858Z,14.60
2022-11-29T18:00:47.324Z,14.23
2022-11-29T18:03:14.679Z,13.90
2022-11-29T18:05:42.287Z,13.77
2022-11-29T18:08:12.447Z,13.82
2022-11-29T18:10:40.886Z,13.73
2022-11-29T18:13:14.143Z,12.88
2022-11-29T18:15:41.931Z,13.30
2022-11-29T18:18:11.982Z,13.43
2022-11-29T18:20:45.453Z,13.50
2022-11-29T18:23:12.718Z,13.77
2022-11-29T18:25:43.694Z,13.07
2022-11-29T18:28:13.913Z,13.82
2022-11-29T18:30:42.299Z,12.90
2022-11-29T18:33:16.931Z,13.52
2022-11-29T18:35:47.423Z,13.15
2022-11-29T18:38:18.511Z,12.82
2022-11-29T18:40:46.723Z,12.68
2022-11-29T18:43:17.444Z,12.65
2022-11-29T18:45:46.989Z,12.18
2022-11-29T18:48:15.494Z,11.68
2022-11-29T18:50:45.520Z,11.15
2022-11-29T18:53:16.900Z,10.88
2022-11-29T18:55:47.311Z,11.30
2022-11-29T18:58:14.837Z,11.70
2022-11-29T19:00:42.417Z,11.25
2022-11-29T19:03:10.777Z,11.10
2022-11-29T19:05:38.656Z,10.10
2022-11-29T19:08:10.188Z,11.15
2022-11-29T19:10:44.300Z,10.20
2022-11-29T19:13:11.676Z,10.48
2022-11-29T19:15:40.367Z,10.07
2022-11-29T19:18:10.204Z,9.88
2022-11-29T19:20:39.883Z,10.23
2022-11-29T19:23:07.157Z,10.60
2022-11-29T19:25:35.320Z,10.35
2022-11-29T19:28:12.477Z,9.65
2022-11-29T19:30:41.243Z,10.70
2022-11-29T19:33:16.792Z,9.43
2022-11-29T19:35:47.447Z,9.55
2022-11-29T19:38:17.108Z,9.55
2022-11-29T19:40:47.072Z,9.95
2022-11-29T19:43:17.822Z,10.10
2022-11-29T19:45:48.086Z,8.95
2022-11-29T19:48:18.348Z,9.48
2022-11-29T19:50:49.447Z,10.07
2022-11-29T19:53:17.183Z,9.52
2022-11-29T19:55:47.222Z,9.38
2022-11-29T19:58:16.681Z,9.93
2022-11-29T20:00:46.502Z,9.80
2022-11-29T20:03:16.676Z,8.88
2022-11-29T20:05:47.207Z,9.93
2022-11-29T20:08:19.828Z,9.80
2022-11-29T20:10:48.493Z,10.18
2022-11-29T20:13:15.860Z,10.00
2022-11-29T20:15:43.156Z,9.50
2022-11-29T20:18:19.948Z,9.57
2022-11-29T20:20:47.184Z,9.10
2022-11-29T20:23:16.793Z,9.77
2022-11-29T20:25:49.119Z,9.85
2022-11-29T20:28:17.137Z,10.38
2022-11-29T20:30:47.106Z,10.15
2022-11-29T20:33:20.759Z,9.27
2022-11-29T20:35:48.284Z,9.52
2022-11-29T20:38:35.918Z,9.68
2022-11-29T20:41:12.600Z,9.02
2022-11-29T20:43:45.452Z,9.60
2022-11-29T20:46:13.647Z,9.75
2022-11-29T20:49:06.132Z,9.35
2022-11-29T20:51:40.737Z,9.68
2022-11-29T20:54:10.195Z,10.13
2022-11-29T20:56:37.893Z,9.77
2022-11-29T20:59:11.300Z,9.43
2022-11-29T21:01:41.137Z,10.10
2022-11-29T21:04:11.590Z,9.60
2022-11-29T21:06:39.109Z,9.55
2022-11-29T21:09:09.408Z,10.27
2022-11-29T21:11:37.656Z,9.18
2022-11-29T21:14:06.136Z,9.10
2022-11-29T21:16:33.575Z,9.27
2022-11-29T21:19:02.255Z,9.23
2022-11-29T21:21:33.155Z,9.48
2022-11-29T21:24:32.969Z,9.85
2022-11-29T21:27:01.123Z,8.82
2022-11-29T21:29:28.445Z,9.25
2022-11-29T21:31:56.543Z,8.65
2022-11-29T21:34:23.968Z,9.27
2022-11-29T21:36:57.121Z,9.45
2022-11-29T21:39:27.530Z,9.32
2022-11-29T21:41:55.098Z,9.45
2022-11-29T21:44:22.601Z,9.25
2022-11-29T21:46:50.111Z,9.30
2022-11-29T21:49:17.866Z,9.23
2022-11-29T21:51:44.913Z,8.32
2022-11-29T21:54:12.072Z,9.20
2022-11-29T21:56:40.118Z,8.40
2022-11-29T21:59:08.625Z,8.05
2022-11-29T22:01:36.050Z,9.05
2022-11-29T22:04:04.407Z,8.05
2022-11-29T22:06:32.010Z,7.80
2022-11-29T22:09:00.285Z,7.53
2022-11-29T22:11:31.255Z,8.05
2022-11-29T22:14:17.849Z,8.48
2022-11-29T22:16:58.703Z,8.52
2022-11-29T22:19:30.147Z,8.32
2022-11-29T22:21:59.026Z,7.65
2022-11-29T22:24:29.170Z,8.07
2022-11-29T22:26:57.440Z,8.48
2022-11-29T22:29:26.844Z,8.30
2022-11-29T22:31:55.605Z,7.85
2022-11-29T22:34:25.397Z,7.80
2022-11-29T22:36:52.470Z,8.52
2022-11-29T22:39:20.065Z,9.35
2022-11-29T22:41:53.649Z,7.80
2022-11-29T22:44:22.110Z,7.72
2022-11-29T22:46:49.555Z,8.77
2022-11-29T22:49:16.947Z,7.40
2022-11-29T22:51:44.179Z,8.57
2022-11-29T22:54:13.412Z,7.97
2022-11-29T22:56:41.406Z,7.55
2022-11-29T22:59:09.306Z,8.70
2022-11-29T23:01:40.937Z,10.02
2022-11-29T23:04:08.781Z,10.00
2022-11-29T23:06:46.376Z,10.55
2022-11-29T23:09:16.745Z,11.32
2022-11-29T23:11:45.081Z,11.40
2022-11-29T23:14:13.047Z,11.32
2022-11-29T23:16:40.326Z,11.55
2022-11-29T23:19:10.411Z,11.45
2022-11-29T23:21:42.188Z,12.40
2022-11-29T23:24:15.228Z,12.90
2022-11-29T23:26:44.095Z,13.20
2022-11-29T23:29:12.941Z,14.40
2022-11-29T23:31:40.964Z,14.57
2022-11-29T23:34:10.910Z,14.70
2022-11-29T23:36:38.053Z,14.93
2022-11-29T23:39:11.453Z,15.38
2022-11-29T23:41:42.311Z,15.40
2022-11-29T23:44:12.790Z,15.50
2022-11-29T23:46:39.907Z,16.08
2022-11-29T23:49:09.681Z,15.10
2022-11-29T23:51:37.210Z,16.17
2022-11-29T23:54:04.434Z,14.90
2022-11-29T23:56:35.379Z,15.48
2022-11-29T23:59:03.024Z,15.73
